Terminal Aerodrome Forecast
Issued by NWS

Home | Current Version | Previous Version | Text Only | Print | Product List | Glossary On
Versions: 1 2 3 4 5 6 7 8 9 10 11 12 13
000
FTUS44 KEPZ 241100
TAFTCS
TAF
KTCS 241120Z 2412/2512 32004KT P6SM FEW090
     FM241800 16010KT P6SM SCT100
     FM250300 26006KT P6SM FEW100=

USA.gov is the U.S. government's official web portal to all federal, state and local government web resources and services.